Balance Rock, California
Current Conditions -  °F | °C
As of 7:35 PM on Saturday 22 Nov 2014 (Local Time) from KPTV Reporting Station
Overcast Overcast  
Wind Chill: 59°   Ceiling: 2300
Heat Index: 59°   Visibility: 10mi
Dew Point: 50°   Wind: 6mph
Humidity: 72%   Direction: 10°N
Pressure: 30.13"   Gusts: NA
Location:  35.7903°N, 118.709°W
Report Text: KPTV 230335Z AUTO 01005KT 10SM BKN023 OVC029 15/10 A3013 RMK AO1
Loading
Personal Weather Stations






























Interactive Weather Map New forecast layout! Learn more

10-Day Weather Forecast

Advertisements
Track Severe Weather on mobile